Time;durP1;ratioP1;P1;durP2;ratioP2;P2;SDS_P1;SDS_P2;PMS_P1;PMS_P2;Temp;Humidity;BMP_temperature;BMP_pressure;BME280_temperature;BME280_humidity;BME280_pressure;Samples;Min_cycle;Max_cycle;Signal;HPM_P1;HPM_P2
2021/12/30 00:01:11;;;;;;;47.22;24.15;;;;;;;9.47;96.52;99148.19;5040099;28;20057;-75
2021/12/30 00:03:37;;;;;;;;;;;;;;;9.57;96.00;99152.28;5038741;28;20049;-75
2021/12/30 00:06:03;;;;;;;53.42;25.05;;;;;;;9.58;95.03;99146.00;5039873;28;19917;-73
2021/12/30 00:08:28;;;;;;;48.47;23.08;;;;;;;9.53;95.78;99153.63;5042208;28;20052;-75
2021/12/30 00:10:55;;;;;;;50.13;23.80;;;;;;;9.62;95.99;99158.88;5043778;28;20052;-75
2021/12/30 00:13:21;;;;;;;51.30;24.58;;;;;;;9.64;95.66;99164.84;5039347;28;20045;-75
2021/12/30 00:15:47;;;;;;;55.63;25.98;;;;;;;9.51;95.65;99160.06;5043159;28;20033;-75
2021/12/30 00:18:13;;;;;;;52.15;25.88;;;;;;;9.60;95.29;99157.25;5043957;28;20040;-75
2021/12/30 00:20:39;;;;;;;57.10;28.17;;;;;;;9.56;95.50;99165.69;5037749;28;20029;-71
2021/12/30 00:23:07;;;;;;;57.58;28.77;;;;;;;9.59;95.63;99166.16;5038166;28;20057;-75
2021/12/30 00:25:41;;;;;;;57.70;29.58;;;;;;;9.52;95.54;99165.19;5038425;28;20315;-71
2021/12/30 00:28:18;;;;;;;64.93;33.95;;;;;;;9.71;94.26;99163.16;5039413;28;20076;-71
2021/12/30 00:30:44;;;;;;;67.72;34.85;;;;;;;9.45;95.68;99156.28;5039142;28;20212;-75
2021/12/30 00:33:11;;;;;;;68.03;34.63;;;;;;;9.40;95.94;99155.97;5043165;28;20038;-72
2021/12/30 00:35:37;;;;;;;64.88;33.80;;;;;;;9.55;95.82;99164.84;5041911;28;20208;-72
2021/12/30 00:38:04;;;;;;;65.25;33.78;;;;;;;9.51;96.15;99165.38;5038025;28;20036;-71
2021/12/30 00:40:30;;;;;;;62.10;32.00;;;;;;;9.42;96.26;99151.34;5037797;28;20021;-71
2021/12/30 00:42:55;;;;;;;60.80;31.38;;;;;;;9.21;97.16;99143.94;5040645;28;20091;-75
2021/12/30 00:45:21;;;;;;;64.00;31.42;;;;;;;9.43;97.00;99150.34;5043329;28;20021;-72
2021/12/30 00:47:46;;;;;;;53.50;27.20;;;;;;;9.59;95.25;99158.25;5042085;28;20136;-71
2021/12/30 00:50:12;;;;;;;54.63;27.63;;;;;;;9.44;96.02;99141.44;5045129;28;20212;-75
2021/12/30 00:52:38;;;;;;;57.28;26.60;;;;;;;9.51;96.46;99157.44;5039172;28;20041;-75
2021/12/30 00:55:04;;;;;;;47.28;24.70;;;;;;;9.50;96.68;99150.50;5036863;28;20043;-72
2021/12/30 00:57:30;;;;;;;43.65;23.58;;;;;;;9.64;95.81;99164.84;5040276;28;20270;-72
2021/12/30 00:59:55;;;;;;;37.63;20.30;;;;;;;9.64;95.61;99156.91;5043018;28;20018;-76
2021/12/30 01:02:21;;;;;;;37.33;20.17;;;;;;;9.47;95.97;99169.34;5037972;28;20071;-69
2021/12/30 01:04:46;;;;;;;37.13;18.75;;;;;;;9.34;96.58;99147.88;5036703;28;20033;-73
2021/12/30 01:07:11;;;;;;;32.58;15.60;;;;;;;9.31;97.08;99164.06;5038697;28;20053;-73
2021/12/30 01:09:38;;;;;;;29.23;15.60;;;;;;;9.24;97.63;99153.34;5037703;28;20030;-73
2021/12/30 01:12:04;;;;;;;24.00;12.00;;;;;;;9.31;96.86;99148.22;5037873;28;20324;-73
2021/12/30 01:14:31;;;;;;;21.23;12.27;;;;;;;9.33;96.77;99147.03;5042959;28;20070;-69
2021/12/30 01:17:00;;;;;;;23.95;11.23;;;;;;;9.59;94.63;99152.94;5041281;28;20065;-75
2021/12/30 01:19:42;;;;;;;19.98;10.88;;;;;;;9.54;95.95;99165.03;5036831;28;20064;-74
2021/12/30 01:22:21;;;;;;;16.17;9.35;;;;;;;9.43;96.48;99166.22;5036557;28;20217;-71
2021/12/30 01:24:47;;;;;;;17.02;8.73;;;;;;;9.34;96.60;99161.06;5037742;28;20036;-75
2021/12/30 01:27:13;;;;;;;16.40;7.93;;;;;;;9.29;96.43;99151.00;5041240;28;20026;-75
2021/12/30 01:29:39;;;;;;;13.45;7.95;;;;;;;9.36;96.88;99165.19;5038297;28;20105;-75
2021/12/30 01:32:05;;;;;;;17.00;8.23;;;;;;;9.21;97.56;99166.88;5038559;28;20096;-71
2021/12/30 01:34:32;;;;;;;13.23;7.97;;;;;;;9.31;97.47;99164.06;5041419;28;20030;-74
2021/12/30 01:37:01;;;;;;;14.10;7.97;;;;;;;9.23;97.65;99160.44;5041303;28;20156;-71
2021/12/30 01:39:27;;;;;;;13.07;7.45;;;;;;;9.19;98.24;99156.47;5039931;28;20227;-72
2021/12/30 01:41:52;;;;;;;19.30;9.00;;;;;;;9.40;97.11;99179.75;5035831;28;20041;-73
2021/12/30 01:44:18;;;;;;;18.02;8.45;;;;;;;9.36;96.58;99159.09;5036859;28;20216;-73
2021/12/30 01:46:44;;;;;;;13.25;7.72;;;;;;;9.30;96.93;99179.09;5038180;28;20037;-73
2021/12/30 01:49:11;;;;;;;13.85;7.70;;;;;;;9.24;97.86;99177.94;5041970;28;20272;-70
2021/12/30 01:51:38;;;;;;;11.43;6.93;;;;;;;9.13;97.96;99178.28;5039855;28;20045;-73
2021/12/30 01:54:05;;;;;;;12.48;6.93;;;;;;;9.10;97.83;99170.69;5040414;28;20074;-69
2021/12/30 01:56:30;;;;;;;11.65;7.20;;;;;;;9.18;97.48;99175.13;5041030;28;20029;-71
2021/12/30 01:58:56;;;;;;;12.75;7.63;;;;;;;9.11;97.33;99168.88;5037119;28;20311;-71
2021/12/30 02:01:22;;;;;;;16.45;8.68;;;;;;;8.99;97.92;99176.31;5037606;28;20097;-71
2021/12/30 02:03:48;;;;;;;23.85;11.00;;;;;;;9.17;97.79;99189.34;5040308;28;20052;-74
2021/12/30 02:06:13;;;;;;;17.73;8.93;;;;;;;9.16;97.70;99192.97;5041596;28;20328;-72
2021/12/30 02:08:39;;;;;;;14.07;8.30;;;;;;;9.16;97.52;99190.31;5040478;28;20317;-71
2021/12/30 02:11:04;;;;;;;15.25;6.47;;;;;;;9.21;96.61;99193.28;5043331;28;20041;-74
2021/12/30 02:13:30;;;;;;;11.20;6.35;;;;;;;9.25;96.99;99199.91;5040275;28;20219;-75
2021/12/30 02:16:00;;;;;;;12.38;7.45;;;;;;;9.24;97.03;99199.06;5040978;28;20083;-75
2021/12/30 02:18:26;;;;;;;14.60;7.95;;;;;;;9.05;97.61;99196.78;5041977;28;20021;-75
2021/12/30 02:20:54;;;;;;;13.27;6.60;;;;;;;9.01;97.09;99184.06;5037063;28;20021;-73
2021/12/30 02:23:23;;;;;;;10.63;5.72;;;;;;;9.15;97.45;99200.06;5041839;28;20096;-69
2021/12/30 02:25:51;;;;;;;9.50;5.93;;;;;;;9.07;96.67;99183.41;5039663;28;20017;-69
2021/12/30 02:28:18;;;;;;;10.85;6.20;;;;;;;9.07;97.10;99189.50;5036374;28;20037;-73
2021/12/30 02:30:45;;;;;;;11.02;6.55;;;;;;;9.13;97.41;99202.06;5034045;28;20037;-70
2021/12/30 02:33:12;;;;;;;10.20;6.28;;;;;;;9.12;97.00;99202.22;5032044;28;20033;-73
2021/12/30 02:35:38;;;;;;;10.13;6.78;;;;;;;8.97;97.77;99202.06;5037338;28;20037;-73
2021/12/30 02:38:05;;;;;;;12.68;7.32;;;;;;;9.02;97.95;99207.66;5040110;28;20033;-69
2021/12/30 02:40:37;;;;;;;10.45;6.40;;;;;;;8.81;98.74;99194.13;5041197;28;20024;-73
2021/12/30 02:43:07;;;;;;;14.55;6.13;;;;;;;9.07;97.43;99220.38;5039652;28;20096;-70
2021/12/30 02:45:33;;;;;;;10.85;6.53;;;;;;;9.06;96.87;99216.91;5041846;28;20029;-71
2021/12/30 02:47:59;;;;;;;7.70;4.93;;;;;;;8.98;97.11;99221.38;5036183;28;20022;-74
2021/12/30 02:50:24;;;;;;;9.93;6.13;;;;;;;9.05;97.43;99225.00;5036461;28;20033;-75
2021/12/30 02:52:50;;;;;;;9.13;5.55;;;;;;;9.05;96.76;99212.63;5040866;28;20213;-71
2021/12/30 02:55:15;;;;;;;8.80;5.18;;;;;;;9.16;96.28;99222.84;5039324;28;20072;-71
2021/12/30 02:57:41;;;;;;;8.57;5.18;;;;;;;9.04;95.44;99229.44;5036040;28;20028;-75
2021/12/30 03:00:08;;;;;;;14.52;6.60;;;;;;;9.19;95.26;99233.09;5035117;28;20032;-75
2021/12/30 03:02:40;;;;;;;10.27;5.55;;;;;;;9.35;94.23;99232.25;5038300;28;20029;-76
2021/12/30 03:05:07;;;;;;;13.35;6.78;;;;;;;9.25;94.19;99229.78;5040203;28;20029;-75
2021/12/30 03:07:34;;;;;;;7.95;5.75;;;;;;;9.11;94.50;99242.81;5038154;28;20033;-72
2021/12/30 03:09:59;;;;;;;8.98;5.63;;;;;;;8.96;95.40;99240.84;5041452;28;20057;-75
2021/12/30 03:12:25;;;;;;;8.10;5.40;;;;;;;9.08;95.35;99241.34;5036625;28;20036;-75
2021/12/30 03:14:51;;;;;;;7.63;5.30;;;;;;;8.99;94.87;99233.56;5035094;28;20032;-72
2021/12/30 03:17:16;;;;;;;8.32;5.28;;;;;;;8.82;95.75;99206.34;5035970;28;20211;-74
2021/12/30 03:19:42;;;;;;;7.57;4.90;;;;;;;8.93;95.22;99227.97;5035445;28;20029;-75
2021/12/30 03:22:09;;;;;;;10.05;5.40;;;;;;;8.97;95.34;99236.38;5035941;28;20331;-74
2021/12/30 03:24:35;;;;;;;9.30;5.47;;;;;;;9.00;95.12;99245.78;5035495;28;20037;-75
2021/12/30 03:27:02;;;;;;;7.32;4.97;;;;;;;8.98;95.41;99258.34;5034981;28;20079;-71
2021/12/30 03:29:28;;;;;;;14.02;6.93;;;;;;;8.74;96.32;99249.38;5035936;28;20030;-72
2021/12/30 03:31:53;;;;;;;12.48;6.80;;;;;;;8.83;96.25;99251.06;5037383;28;20084;-72
2021/12/30 03:34:19;;;;;;;11.68;6.53;;;;;;;8.95;95.49;99259.47;5037783;28;20036;-75
2021/12/30 03:36:45;;;;;;;11.38;6.05;;;;;;;9.22;93.79;99272.38;5041028;28;20038;-71
2021/12/30 03:39:12;;;;;;;10.57;5.70;;;;;;;8.98;94.56;99274.19;5038751;28;20022;-71
2021/12/30 03:41:37;;;;;;;10.32;5.63;;;;;;;8.88;95.33;99274.31;5041709;28;20231;-74
2021/12/30 03:44:03;;;;;;;9.32;5.30;;;;;;;8.73;95.92;99268.03;5039258;28;20031;-72
2021/12/30 03:46:29;;;;;;;6.43;4.60;;;;;;;8.75;96.46;99281.91;5038171;28;20034;-72
2021/12/30 03:48:55;;;;;;;9.70;5.80;;;;;;;8.85;96.66;99285.22;5035988;28;20032;-71
2021/12/30 03:51:24;;;;;;;9.50;5.72;;;;;;;8.84;96.16;99289.66;5034074;28;20045;-75
2021/12/30 03:53:53;;;;;;;9.57;6.10;;;;;;;8.82;96.09;99278.44;5031107;28;20034;-74
2021/12/30 03:56:22;;;;;;;12.13;6.78;;;;;;;8.78;96.22;99292.13;5020699;28;20304;-72
2021/12/30 03:58:48;;;;;;;13.98;7.00;;;;;;;8.81;95.67;99287.34;5030896;28;20048;-71
2021/12/30 04:01:16;;;;;;;13.93;7.43;;;;;;;8.97;96.17;99289.19;5035893;28;20318;-74
2021/12/30 04:03:42;;;;;;;14.88;7.63;;;;;;;9.09;94.60;99285.25;5033423;28;20034;-75
2021/12/30 04:06:09;;;;;;;14.63;6.65;;;;;;;9.11;94.72;99301.75;5035953;28;20246;-75
2021/12/30 04:08:35;;;;;;;11.07;6.65;;;;;;;9.09;94.16;99295.81;5035525;28;20049;-75
2021/12/30 04:11:00;;;;;;;12.63;6.32;;;;;;;8.94;94.92;99302.72;5040263;28;20037;-75
2021/12/30 04:13:26;;;;;;;13.85;6.78;;;;;;;9.09;95.26;99316.94;5037184;28;20032;-75
2021/12/30 04:15:52;;;;;;;13.30;6.50;;;;;;;9.02;94.78;99305.38;5041732;28;20286;-74
2021/12/30 04:18:18;;;;;;;14.15;6.85;;;;;;;8.95;95.31;99310.47;5036864;28;20061;-74
2021/12/30 04:20:46;;;;;;;12.40;6.68;;;;;;;8.90;95.68;99330.44;5034488;28;20029;-71
2021/12/30 04:23:12;;;;;;;11.23;5.80;;;;;;;8.89;95.62;99334.88;5033783;28;20045;-75
2021/12/30 04:25:37;;;;;;;11.18;5.70;;;;;;;8.61;96.21;99325.56;5034436;28;20212;-75
2021/12/30 04:28:03;;;;;;;10.88;5.45;;;;;;;8.82;95.31;99330.41;5033933;28;20033;-71
2021/12/30 04:30:28;;;;;;;10.25;6.28;;;;;;;9.00;94.82;99348.78;5043682;28;20029;-72
2021/12/30 04:32:54;;;;;;;9.13;5.50;;;;;;;8.83;95.39;99347.91;5043289;28;20211;-76
2021/12/30 04:35:20;;;;;;;9.98;5.28;;;;;;;8.84;95.06;99350.38;5039376;28;20326;-75
2021/12/30 04:37:45;;;;;;;7.95;5.32;;;;;;;8.86;95.50;99355.50;5044658;28;20033;-71
2021/12/30 04:40:12;;;;;;;9.48;5.70;;;;;;;8.86;95.42;99364.25;5041930;28;20016;-75
2021/12/30 04:42:38;;;;;;;10.05;5.63;;;;;;;8.86;94.58;99360.78;5042787;28;20037;-74
2021/12/30 04:45:05;;;;;;;10.88;5.75;;;;;;;8.97;94.74;99373.69;5044023;28;20052;-75
2021/12/30 04:47:31;;;;;;;16.70;8.48;;;;;;;8.90;94.75;99377.97;5042266;28;20042;-75
2021/12/30 04:49:57;;;;;;;14.85;7.55;;;;;;;8.64;95.79;99384.13;5043444;28;20029;-71
2021/12/30 04:52:24;;;;;;;45.53;17.73;;;;;;;8.58;96.55;99392.69;5040312;28;20258;-75
2021/12/30 04:54:50;;;;;;;54.58;23.40;;;;;;;8.63;96.48;99397.50;5043574;28;20040;-75
2021/12/30 04:57:16;;;;;;;42.03;20.92;;;;;;;8.62;96.23;99403.75;5042445;28;20259;-75
2021/12/30 04:59:41;;;;;;;67.03;25.05;;;;;;;8.51;96.83;99402.22;5040059;28;20091;-72
2021/12/30 05:02:07;;;;;;;86.15;30.70;;;;;;;8.60;96.96;99400.44;5038077;28;20062;-71
2021/12/30 05:04:33;;;;;;;61.78;21.13;;;;;;;8.50;96.88;99407.66;5037568;28;20037;-71
2021/12/30 05:06:58;;;;;;;60.20;21.33;;;;;;;8.46;96.81;99404.50;5034349;28;20410;-72
2021/12/30 05:09:24;;;;;;;71.63;23.00;;;;;;;8.57;96.24;99409.50;5038413;28;20339;-74
2021/12/30 05:11:49;;;;;;;77.47;27.42;;;;;;;8.49;96.98;99420.03;5036340;28;20327;-75
2021/12/30 05:14:15;;;;;;;61.92;30.80;;;;;;;8.65;95.60;99424.56;5042462;28;20046;-71
2021/12/30 05:16:40;;;;;;;26.30;10.48;;;;;;;8.57;95.59;99429.78;5042697;28;20037;-75
2021/12/30 05:19:07;;;;;;;41.75;12.20;;;;;;;8.60;95.33;99440.88;5037623;28;20092;-74
2021/12/30 05:21:33;;;;;;;59.35;17.88;;;;;;;8.59;95.40;99438.38;5037245;28;20086;-75
2021/12/30 05:23:59;;;;;;;37.80;14.23;;;;;;;8.52;95.22;99437.34;5035874;28;20044;-75
2021/12/30 05:26:27;;;;;;;33.15;12.82;;;;;;;8.57;94.08;99443.00;5042676;28;20308;-76
2021/12/30 05:28:57;;;;;;;17.70;8.45;;;;;;;8.50;95.16;99457.78;5038965;28;20292;-72
2021/12/30 05:31:24;;;;;;;16.02;6.82;;;;;;;8.47;95.66;99455.47;5043017;28;20047;-75
2021/12/30 05:33:50;;;;;;;12.55;6.93;;;;;;;8.39;95.94;99479.16;5040181;28;20204;-71
2021/12/30 05:36:15;;;;;;;9.57;5.40;;;;;;;8.14;97.01;99468.38;5037867;28;20068;-71
2021/12/30 05:38:41;;;;;;;16.02;7.60;;;;;;;8.18;97.08;99464.44;5041199;28;20036;-71
2021/12/30 05:41:06;;;;;;;14.07;7.88;;;;;;;8.27;96.21;99465.31;5041672;28;20041;-75
2021/12/30 05:43:32;;;;;;;14.65;8.20;;;;;;;8.20;95.82;99459.84;5040177;28;20029;-72
2021/12/30 05:45:58;;;;;;;13.80;6.75;;;;;;;8.47;95.19;99482.69;5041869;28;20330;-75
2021/12/30 05:48:23;;;;;;;25.30;8.75;;;;;;;8.48;94.79;99488.78;5026951;28;20030;-75
2021/12/30 05:50:49;;;;;;;25.00;8.02;;;;;;;8.28;95.65;99494.19;5043367;28;20035;-75
2021/12/30 05:53:14;;;;;;;14.07;6.82;;;;;;;8.13;96.83;99494.88;5039651;28;20059;-71
2021/12/30 05:55:40;;;;;;;10.68;5.25;;;;;;;8.04;96.77;99483.44;5042354;28;20323;-71
2021/12/30 05:58:05;;;;;;;13.45;5.78;;;;;;;8.34;96.12;99511.28;5042666;28;20239;-72
2021/12/30 06:00:32;;;;;;;14.05;7.03;;;;;;;8.11;96.54;99492.41;5041681;28;20045;-75
2021/12/30 06:02:58;;;;;;;13.27;6.93;;;;;;;8.08;96.92;99508.53;5039247;28;20211;-75
2021/12/30 06:05:24;;;;;;;15.57;8.63;;;;;;;8.26;95.82;99516.44;5039605;28;20276;-71
2021/12/30 06:07:50;;;;;;;13.68;7.30;;;;;;;8.40;94.77;99526.50;5041519;28;20041;-74
2021/12/30 06:10:16;;;;;;;18.75;8.20;;;;;;;8.55;93.76;99532.03;5039973;28;20032;-72
2021/12/30 06:12:42;;;;;;;15.45;8.18;;;;;;;8.34;94.70;99542.94;5042062;28;20096;-74
2021/12/30 06:15:09;;;;;;;18.33;7.70;;;;;;;8.47;93.62;99553.09;5039432;28;20029;-71
2021/12/30 06:17:37;;;;;;;12.77;5.95;;;;;;;8.51;93.59;99549.16;5023400;28;20034;-75
2021/12/30 06:20:05;;;;;;;10.40;6.07;;;;;;;8.39;93.01;99548.59;5022423;28;20099;-71
2021/12/30 06:22:30;;;;;;;12.63;5.72;;;;;;;8.35;93.93;99570.16;5021385;28;20038;-71
2021/12/30 06:24:55;;;;;;;7.28;3.67;;;;;;;8.39;93.55;99574.97;5036283;28;20034;-75
2021/12/30 06:27:21;;;;;;;20.73;6.32;;;;;;;8.45;93.30;99576.16;5037354;28;20221;-72
2021/12/30 06:29:46;;;;;;;11.35;5.07;;;;;;;8.45;92.61;99576.16;5039951;28;20029;-71
2021/12/30 06:32:12;;;;;;;13.52;7.55;;;;;;;8.31;93.75;99588.03;5036932;28;20378;-71
2021/12/30 06:34:37;;;;;;;13.30;7.70;;;;;;;8.40;93.40;99596.91;5036436;28;20045;-75
2021/12/30 06:37:03;;;;;;;20.67;11.25;;;;;;;8.37;93.44;99584.00;5038583;28;20033;-75
2021/12/30 06:39:28;;;;;;;17.88;9.10;;;;;;;8.03;94.66;99566.16;5039801;28;20048;-75
2021/12/30 06:41:53;;;;;;;16.67;7.07;;;;;;;8.57;92.70;99615.34;5041496;28;20100;-74
2021/12/30 06:44:19;;;;;;;16.15;7.70;;;;;;;8.58;92.83;99611.75;5037926;28;20029;-74
2021/12/30 06:46:52;;;;;;;13.30;6.57;;;;;;;8.55;93.36;99621.78;5037576;28;20104;-71
2021/12/30 06:49:18;;;;;;;16.98;6.88;;;;;;;8.51;92.70;99617.78;5041006;28;20316;-75
2021/12/30 06:51:44;;;;;;;13.50;7.68;;;;;;;8.51;92.83;99626.53;5036814;28;20052;-74
2021/12/30 06:54:10;;;;;;;11.52;6.00;;;;;;;8.45;93.29;99636.84;5035353;28;20037;-75
2021/12/30 06:56:35;;;;;;;10.85;5.82;;;;;;;8.45;93.32;99640.31;5036297;28;20238;-75
2021/12/30 06:59:02;;;;;;;13.50;7.25;;;;;;;8.47;93.49;99642.81;5037112;28;20280;-71
2021/12/30 07:01:29;;;;;;;14.30;7.10;;;;;;;8.58;93.01;99651.31;5038795;28;20037;-75
2021/12/30 07:03:55;;;;;;;20.17;8.70;;;;;;;8.57;93.65;99656.75;5035345;28;20235;-74
2021/12/30 07:06:20;;;;;;;18.58;9.32;;;;;;;8.51;92.64;99650.28;5041344;28;20060;-75
2021/12/30 07:08:46;;;;;;;13.93;7.80;;;;;;;8.79;91.47;99664.22;5039879;28;20036;-71
2021/12/30 07:11:11;;;;;;;11.90;6.32;;;;;;;8.74;91.99;99668.28;5038575;28;20025;-75
2021/12/30 07:13:37;;;;;;;9.77;5.30;;;;;;;8.53;92.72;99679.16;5041296;28;20029;-71
2021/12/30 07:16:03;;;;;;;7.35;4.20;;;;;;;8.49;92.84;99681.25;5037639;28;20101;-75
2021/12/30 07:18:29;;;;;;;9.50;5.05;;;;;;;8.55;92.30;99670.09;5040915;28;20331;-72
2021/12/30 07:20:54;;;;;;;9.93;5.25;;;;;;;8.76;91.05;99690.09;5038859;28;20289;-71
2021/12/30 07:23:19;;;;;;;10.82;5.85;;;;;;;8.87;90.06;99695.13;5035327;28;20370;-75
2021/12/30 07:25:45;;;;;;;9.32;5.40;;;;;;;8.83;91.56;99706.97;5035049;28;20052;-75
2021/12/30 07:28:10;;;;;;;9.32;5.28;;;;;;;8.71;91.60;99698.47;5034711;28;20231;-75
2021/12/30 07:30:36;;;;;;;9.98;5.45;;;;;;;8.75;91.57;99698.97;5036027;28;20052;-71
2021/12/30 07:33:06;;;;;;;12.70;6.13;;;;;;;8.96;90.85;99696.84;5040621;28;20232;-71
2021/12/30 07:35:33;;;;;;;9.07;5.45;;;;;;;8.93;89.78;99713.84;5037972;28;20053;-74
2021/12/30 07:37:58;;;;;;;10.82;5.78;;;;;;;8.74;90.91;99721.91;5035296;28;20443;-75
2021/12/30 07:40:24;;;;;;;14.90;7.65;;;;;;;8.91;90.04;99730.81;5035664;28;20032;-75
2021/12/30 07:42:49;;;;;;;10.45;5.60;;;;;;;8.69;90.86;99729.44;5036903;28;20028;-75
2021/12/30 07:45:15;;;;;;;9.30;6.22;;;;;;;8.68;91.50;99721.69;5037234;28;20040;-75
2021/12/30 07:47:41;;;;;;;14.07;8.48;;;;;;;8.44;92.85;99722.28;5040346;28;20097;-76
2021/12/30 07:50:09;;;;;;;17.33;9.88;;;;;;;8.70;91.43;99732.94;5036471;28;20124;-72
2021/12/30 07:52:34;;;;;;;16.52;9.10;;;;;;;8.69;91.63;99742.66;5031721;28;20076;-71
2021/12/30 07:55:00;;;;;;;14.80;8.43;;;;;;;8.64;91.33;99737.00;5040237;28;20029;-70
2021/12/30 07:57:26;;;;;;;17.80;8.55;;;;;;;8.89;90.36;99753.91;5039696;28;20038;-71
2021/12/30 07:59:52;;;;;;;11.07;6.63;;;;;;;8.97;89.87;99756.63;5033484;28;20068;-72
2021/12/30 08:02:18;;;;;;;13.43;7.47;;;;;;;8.89;90.10;99754.72;5037332;28;20033;-72
2021/12/30 08:04:44;;;;;;;10.90;6.13;;;;;;;8.78;90.43;99760.22;5035555;28;20041;-71
2021/12/30 08:07:10;;;;;;;11.13;6.40;;;;;;;8.78;91.45;99759.41;5038968;28;20109;-71
2021/12/30 08:09:35;;;;;;;11.63;7.20;;;;;;;8.96;90.08;99761.06;5044307;28;20115;-75
2021/12/30 08:12:01;;;;;;;12.30;5.90;;;;;;;8.85;89.76;99761.28;5042959;28;20037;-75
2021/12/30 08:14:27;;;;;;;20.27;8.68;;;;;;;8.88;88.31;99745.16;5033491;28;20041;-75
2021/12/30 08:16:53;;;;;;;15.45;6.38;;;;;;;8.84;88.95;99766.72;5039416;28;20347;-74
2021/12/30 08:19:19;;;;;;;13.45;5.43;;;;;;;8.83;89.50;99760.63;5042754;28;20033;-71
2021/12/30 08:21:44;;;;;;;11.82;4.75;;;;;;;8.98;89.51;99782.03;5043967;28;20041;-71
2021/12/30 08:24:10;;;;;;;11.65;6.03;;;;;;;9.11;89.39;99785.13;5038689;28;20056;-75
2021/12/30 08:26:36;;;;;;;11.32;5.10;;;;;;;9.17;88.82;99784.53;5035364;28;20390;-72
2021/12/30 08:29:04;;;;;;;8.93;5.05;;;;;;;9.37;88.02;99787.03;5038483;28;20029;-76
2021/12/30 08:31:29;;;;;;;10.60;5.05;;;;;;;9.45;87.43;99795.03;5038415;28;20083;-75
2021/12/30 08:33:55;;;;;;;10.35;4.70;;;;;;;9.21;87.44;99795.63;5039004;28;20037;-75
2021/12/30 08:36:20;;;;;;;9.90;6.45;;;;;;;9.15;87.27;99759.25;5039078;28;20101;-72
2021/12/30 08:38:46;;;;;;;15.60;8.65;;;;;;;9.44;86.96;99782.78;5037559;28;20096;-75
2021/12/30 08:41:11;;;;;;;13.82;8.18;;;;;;;9.21;87.10;99780.59;5042622;28;20222;-75
2021/12/30 08:43:37;;;;;;;14.48;8.25;;;;;;;9.49;85.65;99797.19;5043304;28;20040;-71
2021/12/30 08:46:03;;;;;;;18.38;8.90;;;;;;;9.32;87.08;99795.38;5042661;28;20040;-71
2021/12/30 08:48:28;;;;;;;14.30;7.95;;;;;;;9.42;86.97;99800.59;5042746;28;20329;-74
2021/12/30 08:50:54;;;;;;;18.95;10.80;;;;;;;9.40;86.76;99797.28;5043130;28;20040;-74
2021/12/30 08:53:22;;;;;;;23.08;10.70;;;;;;;9.29;86.88;99790.41;5042124;28;20044;-75
2021/12/30 08:55:47;;;;;;;20.25;11.68;;;;;;;9.29;87.53;99798.31;5043529;28;20036;-76
2021/12/30 08:58:12;;;;;;;16.63;8.63;;;;;;;9.18;88.04;99796.75;5042840;28;20223;-73
2021/12/30 09:00:38;;;;;;;17.70;8.60;;;;;;;9.62;86.32;99809.19;5039993;28;20342;-75
2021/12/30 09:03:05;;;;;;;17.85;8.55;;;;;;;9.46;85.67;99784.28;5029847;28;20370;-76
2021/12/30 09:05:35;;;;;;;11.15;5.88;;;;;;;9.68;86.25;99813.84;5034122;28;20347;-75
2021/12/30 09:08:01;;;;;;;16.50;12.73;;;;;;;9.63;85.17;99818.78;5044503;28;20047;-73
2021/12/30 09:10:26;;;;;;;14.95;10.63;;;;;;;9.64;84.71;99823.91;5044771;28;20085;-74
2021/12/30 09:12:53;;;;;;;8.27;6.78;;;;;;;9.47;85.29;99827.41;5042980;28;20033;-76
2021/12/30 09:15:22;;;;;;;9.15;6.47;;;;;;;9.41;86.80;99810.34;5043583;28;20029;-71
2021/12/30 09:17:48;;;;;;;10.70;9.02;;;;;;;9.47;85.18;99827.41;5044040;28;20041;-75
2021/12/30 09:20:15;;;;;;;10.07;7.13;;;;;;;9.48;85.17;99831.72;5044168;28;20048;-75
2021/12/30 09:22:40;;;;;;;24.52;17.10;;;;;;;9.44;85.23;99819.78;5042916;28;20032;-71
2021/12/30 09:25:08;;;;;;;14.10;9.35;;;;;;;9.43;84.59;99823.41;5043977;28;20033;-76
2021/12/30 09:27:35;;;;;;;14.75;7.82;;;;;;;9.51;84.56;99837.53;5042709;28;20064;-72
2021/12/30 09:30:02;;;;;;;11.32;8.07;;;;;;;9.57;84.99;99838.72;5043828;28;20033;-72
2021/12/30 09:32:28;;;;;;;6.47;5.20;;;;;;;9.35;85.27;99823.31;5043897;28;20025;-76
2021/12/30 09:34:53;;;;;;;6.18;4.30;;;;;;;9.43;84.58;99837.47;5041732;28;20061;-72
2021/12/30 09:37:19;;;;;;;4.60;3.38;;;;;;;9.32;84.45;99837.66;5042314;28;20060;-71
2021/12/30 09:39:44;;;;;;;5.05;3.80;;;;;;;9.41;84.36;99831.50;5039766;28;20053;-76
2021/12/30 09:42:10;;;;;;;17.90;13.88;;;;;;;9.66;83.85;99839.63;5042450;28;20067;-72
2021/12/30 09:44:36;;;;;;;6.95;4.13;;;;;;;9.51;83.90;99848.09;5042103;28;20291;-76
2021/12/30 09:47:02;;;;;;;11.98;8.48;;;;;;;9.58;83.94;99843.88;5042274;28;20045;-71
2021/12/30 09:49:28;;;;;;;7.80;4.70;;;;;;;9.62;83.63;99841.75;5042261;28;20041;-71
2021/12/30 09:51:54;;;;;;;9.27;6.57;;;;;;;9.66;85.38;99829.03;5056889;28;20091;-69
2021/12/30 09:54:21;;;;;;;9.23;4.75;;;;;;;9.84;84.24;99843.06;5041919;28;20045;-72
2021/12/30 09:56:48;;;;;;;7.80;4.63;;;;;;;9.68;84.01;99841.13;5041756;28;20037;-73
2021/12/30 09:59:14;;;;;;;11.50;7.45;;;;;;;9.68;83.39;99819.97;5057221;28;20101;-73
2021/12/30 10:01:41;;;;;;;11.48;7.43;;;;;;;9.59;84.72;99839.41;5056990;28;20375;-68
2021/12/30 10:04:08;;;;;;;9.02;5.70;;;;;;;9.27;85.08;99839.94;5042288;28;20029;-69
2021/12/30 10:06:40;;;;;;;7.95;5.35;;;;;;;9.49;83.52;99846.59;5041632;28;20068;-75
2021/12/30 10:09:11;;;;;;;4.78;3.65;;;;;;;9.51;84.60;99853.38;5042081;28;20349;-76
2021/12/30 10:11:52;;;;;;;7.25;4.13;;;;;;;9.38;84.39;99837.09;5041221;28;20033;-76
2021/12/30 10:14:28;;;;;;;12.05;4.68;;;;;;;9.45;84.36;99858.44;5041422;28;20100;-74
2021/12/30 10:17:23;;;;;;;8.82;5.45;;;;;;;9.62;83.11;99854.13;5041862;28;20053;-72
2021/12/30 10:19:50;;;;;;;12.93;5.93;;;;;;;9.57;84.37;99858.06;5041387;28;20414;-76
2021/12/30 10:22:21;;;;;;;7.68;4.53;;;;;;;9.42;83.61;99846.38;5041602;28;20206;-70
2021/12/30 10:24:47;;;;;;;8.05;3.75;;;;;;;9.55;83.83;99848.63;5041294;28;20117;-75
2021/12/30 10:27:42;;;;;;;6.28;3.00;;;;;;;9.62;84.21;99854.97;5040993;28;20254;-76
2021/12/30 10:30:08;;;;;;;7.22;4.85;;;;;;;9.65;83.37;99865.22;5045187;28;20323;-76
2021/12/30 10:32:33;;;;;;;5.80;3.33;;;;;;;9.55;84.18;99859.19;5041155;28;20116;-75
2021/12/30 10:35:08;;;;;;;6.22;3.08;;;;;;;9.63;85.49;99859.25;5042184;28;20312;-76
2021/12/30 10:37:35;;;;;;;6.45;3.63;;;;;;;9.77;84.70;99860.53;5040164;28;20084;-75
2021/12/30 10:40:01;;;;;;;7.30;4.53;;;;;;;9.76;83.78;99854.41;5041766;28;20040;-71
2021/12/30 10:42:30;;;;;;;14.60;6.28;;;;;;;9.81;83.14;99878.56;5042049;28;20033;-71
2021/12/30 10:44:57;;;;;;;13.40;6.18;;;;;;;9.82;82.46;99877.59;5041736;28;20063;-68
2021/12/30 10:47:27;;;;;;;14.18;6.28;;;;;;;9.85;82.37;99872.00;5057117;28;20045;-70
2021/12/30 10:50:05;;;;;;;15.48;7.13;;;;;;;9.87;83.00;99880.59;5041568;28;20092;-68
2021/12/30 10:52:30;;;;;;;13.23;7.20;;;;;;;9.95;81.73;99877.19;5056311;28;20095;-73
2021/12/30 10:54:59;;;;;;;13.90;6.93;;;;;;;9.88;82.01;99865.56;5041782;28;20053;-68
2021/12/30 10:57:30;;;;;;;17.75;7.50;;;;;;;9.89;82.14;99883.94;5056954;28;20222;-73
2021/12/30 10:59:56;;;;;;;14.30;7.75;;;;;;;9.95;82.01;99886.94;5041543;28;20271;-74
2021/12/30 11:02:26;;;;;;;17.27;8.90;;;;;;;10.03;82.14;99900.22;5041360;28;20303;-68
2021/12/30 11:04:53;;;;;;;20.90;9.32;;;;;;;10.28;80.50;99902.06;5041440;28;20033;-69
2021/12/30 11:07:22;;;;;;;17.98;9.80;;;;;;;10.12;81.72;99892.19;5041711;28;20025;-72
2021/12/30 11:10:00;;;;;;;15.38;9.18;;;;;;;10.15;80.66;99889.22;5041317;28;20317;-68
2021/12/30 11:12:31;;;;;;;16.63;9.02;;;;;;;9.89;82.34;99889.22;5040874;28;20062;-73
2021/12/30 11:15:00;;;;;;;14.23;8.73;;;;;;;10.04;81.59;99894.78;5041561;28;20045;-69
2021/12/30 11:17:34;;;;;;;15.73;9.98;;;;;;;10.06;82.30;99895.44;5042214;28;20029;-70
2021/12/30 11:20:05;;;;;;;16.05;8.88;;;;;;;10.30;80.86;99894.81;5042252;28;20270;-68
2021/12/30 11:22:32;;;;;;;15.02;8.27;;;;;;;10.17;82.01;99900.50;5041941;28;20048;-68
2021/12/30 11:25:03;;;;;;;21.48;10.95;;;;;;;10.20;81.51;99886.16;5042095;28;20315;-73
2021/12/30 11:27:30;;;;;;;33.72;16.20;;;;;;;10.35;81.15;99904.91;5042353;28;20065;-73
2021/12/30 11:30:00;;;;;;;26.58;12.70;;;;;;;10.17;80.91;99907.59;5042030;28;20033;-70
2021/12/30 11:32:29;;;;;;;29.70;12.85;;;;;;;10.15;80.74;99905.09;5042166;28;20047;-69